createdAt,value
2023-04-30T00:01:04.281Z,17.60
2023-04-30T00:04:06.761Z,17.60
2023-04-30T00:07:09.040Z,17.60
2023-04-30T00:10:11.698Z,17.60
2023-04-30T00:13:14.365Z,17.60
2023-04-30T00:16:16.551Z,17.60
2023-04-30T00:19:18.820Z,17.60
2023-04-30T00:22:21.114Z,17.60
2023-04-30T00:25:24.825Z,17.60
2023-04-30T00:28:27.120Z,17.60
2023-04-30T00:31:29.459Z,17.60
2023-04-30T00:34:32.377Z,17.60
2023-04-30T00:37:34.802Z,17.60
2023-04-30T00:40:38.687Z,17.60
2023-04-30T00:43:41.074Z,17.60
2023-04-30T00:46:43.830Z,17.60
2023-04-30T00:49:46.510Z,17.60
2023-04-30T00:52:49.093Z,17.60
2023-04-30T00:55:52.026Z,17.60
2023-04-30T00:58:57.496Z,17.60
2023-04-30T01:01:59.865Z,17.60
2023-04-30T01:05:04.066Z,17.50
2023-04-30T01:08:06.498Z,17.50
2023-04-30T01:11:22.644Z,17.50
2023-04-30T01:14:41.097Z,17.50
2023-04-30T01:17:57.809Z,17.50
2023-04-30T01:21:04.929Z,17.50
2023-04-30T01:24:32.201Z,17.50
2023-04-30T01:27:53.372Z,17.50
2023-04-30T01:30:56.384Z,17.50
2023-04-30T01:33:58.588Z,17.50
2023-04-30T01:37:37.486Z,17.50
2023-04-30T01:40:54.271Z,17.50
2023-04-30T01:44:31.890Z,17.50
2023-04-30T01:47:52.937Z,17.50
2023-04-30T01:51:07.190Z,17.50
2023-04-30T01:54:31.893Z,17.50
2023-04-30T01:57:40.585Z,17.40
2023-04-30T02:00:43.252Z,17.50
2023-04-30T02:03:45.724Z,17.40
2023-04-30T02:06:48.177Z,17.40
2023-04-30T02:09:50.499Z,17.40
2023-04-30T02:12:53.745Z,17.40
2023-04-30T02:15:56.393Z,17.40
2023-04-30T02:18:58.748Z,17.40
2023-04-30T02:22:01.026Z,17.40
2023-04-30T02:25:03.747Z,17.40
2023-04-30T02:28:07.649Z,17.40
2023-04-30T02:31:10.603Z,17.40
2023-04-30T02:34:12.882Z,17.40
2023-04-30T02:37:15.296Z,17.40
2023-04-30T02:40:17.661Z,17.40
2023-04-30T02:43:19.872Z,17.40
2023-04-30T02:46:22.384Z,17.40
2023-04-30T02:49:24.906Z,17.40
2023-04-30T02:52:27.902Z,17.40
2023-04-30T02:55:30.277Z,17.40
2023-04-30T02:58:32.567Z,17.40
2023-04-30T03:01:34.761Z,17.30
2023-04-30T03:04:37.065Z,17.40
2023-04-30T03:07:39.461Z,17.40
2023-04-30T03:10:41.716Z,17.30
2023-04-30T03:13:44.232Z,17.40
2023-04-30T03:16:46.789Z,17.40
2023-04-30T03:19:49.354Z,17.40
2023-04-30T03:22:51.712Z,17.40
2023-04-30T03:25:54.012Z,17.30
2023-04-30T03:28:56.904Z,17.30
2023-04-30T03:31:59.085Z,17.30
2023-04-30T03:35:01.384Z,17.30
2023-04-30T03:38:04.457Z,17.30
2023-04-30T03:41:06.961Z,17.30
2023-04-30T03:44:16.000Z,17.30
2023-04-30T03:47:18.446Z,17.30
2023-04-30T03:50:20.975Z,17.30
2023-04-30T03:53:25.986Z,17.30
2023-04-30T03:56:28.177Z,17.30
2023-04-30T03:59:31.956Z,17.30
2023-04-30T04:02:34.888Z,17.30
2023-04-30T04:05:37.285Z,17.30
2023-04-30T04:08:39.664Z,17.30
2023-04-30T04:11:42.033Z,17.30
2023-04-30T04:14:44.340Z,17.30
2023-04-30T04:17:46.688Z,17.30
2023-04-30T04:20:49.194Z,17.20
2023-04-30T04:23:52.441Z,17.20
2023-04-30T04:26:54.980Z,17.20
2023-04-30T04:29:57.322Z,17.30
2023-04-30T04:33:00.765Z,17.20
2023-04-30T04:36:04.779Z,17.20
2023-04-30T04:39:07.327Z,17.20
2023-04-30T04:42:09.855Z,17.20
2023-04-30T04:45:12.596Z,17.20
2023-04-30T04:48:15.467Z,17.20
2023-04-30T04:51:17.760Z,17.20
2023-04-30T04:54:20.080Z,17.20
2023-04-30T04:57:22.371Z,17.20
2023-04-30T05:00:26.194Z,17.20
2023-04-30T05:03:29.314Z,17.20
2023-04-30T05:06:32.406Z,17.20
2023-04-30T05:09:35.305Z,17.20
2023-04-30T05:12:37.692Z,17.20
2023-04-30T05:15:39.957Z,17.20
2023-04-30T05:18:42.301Z,17.20
2023-04-30T05:21:44.461Z,17.20
2023-04-30T05:24:46.939Z,17.20
2023-04-30T05:27:49.207Z,17.20
2023-04-30T05:30:52.067Z,17.10
2023-04-30T05:33:54.407Z,17.20
2023-04-30T05:36:56.837Z,17.10
2023-04-30T05:39:59.115Z,17.20
2023-04-30T05:43:01.295Z,17.10
2023-04-30T05:46:04.348Z,17.20
2023-04-30T05:49:06.733Z,17.10
2023-04-30T05:52:09.052Z,17.10
2023-04-30T05:55:11.856Z,17.10
2023-04-30T05:58:14.115Z,17.20
2023-04-30T06:01:16.360Z,17.10
2023-04-30T06:04:18.843Z,17.10
2023-04-30T06:07:21.057Z,17.10
2023-04-30T06:10:23.338Z,17.10
2023-04-30T06:13:26.084Z,17.10
2023-04-30T06:16:29.578Z,17.10
2023-04-30T06:19:31.891Z,17.10
2023-04-30T06:22:34.610Z,17.10
2023-04-30T06:25:36.947Z,17.10
2023-04-30T06:28:39.159Z,17.10
2023-04-30T06:31:41.474Z,17.10
2023-04-30T06:34:43.949Z,17.10
2023-04-30T06:37:47.244Z,17.10
2023-04-30T06:40:49.608Z,17.10
2023-04-30T06:43:51.951Z,17.10
2023-04-30T06:46:54.301Z,17.10
2023-04-30T06:49:56.727Z,17.10
2023-04-30T06:52:59.152Z,17.10
2023-04-30T06:56:01.583Z,17.10
2023-04-30T06:59:04.190Z,17.10
2023-04-30T07:02:06.439Z,17.10
2023-04-30T07:05:09.488Z,17.10
2023-04-30T07:08:11.992Z,17.10
2023-04-30T07:11:14.336Z,17.10
2023-04-30T07:14:17.166Z,17.10
2023-04-30T07:17:19.500Z,17.10
2023-04-30T07:20:21.873Z,17.10
2023-04-30T07:23:24.113Z,17.10
2023-04-30T07:26:26.762Z,17.10
2023-04-30T07:29:29.732Z,17.10
2023-04-30T07:32:32.091Z,17.10
2023-04-30T07:35:34.603Z,17.10
2023-04-30T07:38:37.047Z,17.10
2023-04-30T07:41:39.456Z,17.10
2023-04-30T07:44:41.941Z,17.10
2023-04-30T07:47:44.758Z,17.10
2023-04-30T07:50:51.428Z,17.10
2023-04-30T07:53:55.531Z,17.10
2023-04-30T07:57:00.820Z,17.10
2023-04-30T08:00:04.252Z,17.10
2023-04-30T08:03:14.963Z,17.10
2023-04-30T08:06:17.271Z,17.20
2023-04-30T08:09:19.480Z,17.10
2023-04-30T08:12:21.700Z,17.20
2023-04-30T08:15:24.100Z,17.20
2023-04-30T08:18:26.380Z,17.20
2023-04-30T08:21:28.661Z,17.20
2023-04-30T08:24:31.032Z,17.20
2023-04-30T08:27:33.356Z,17.20
2023-04-30T08:30:35.598Z,17.20
2023-04-30T08:33:37.855Z,17.30
2023-04-30T08:36:40.138Z,17.30
2023-04-30T08:39:42.504Z,17.30
2023-04-30T08:42:55.988Z,17.20
2023-04-30T08:45:58.789Z,17.30
2023-04-30T08:49:01.293Z,17.30
2023-04-30T08:52:03.622Z,17.30
2023-04-30T08:55:08.988Z,17.30
2023-04-30T08:58:11.223Z,17.30
2023-04-30T09:01:14.465Z,17.30
2023-04-30T09:04:16.802Z,17.30
2023-04-30T09:07:19.269Z,17.30
2023-04-30T09:10:25.649Z,17.30
2023-04-30T09:13:41.324Z,17.30
2023-04-30T09:16:48.115Z,17.30
2023-04-30T09:19:50.594Z,17.30
2023-04-30T09:23:09.139Z,17.30
2023-04-30T09:26:22.160Z,17.40
2023-04-30T09:29:37.111Z,17.30
2023-04-30T09:32:56.746Z,17.40
2023-04-30T09:36:09.700Z,17.40
2023-04-30T09:39:15.735Z,17.40
2023-04-30T09:42:19.898Z,17.40
2023-04-30T09:45:22.224Z,17.40
2023-04-30T09:48:26.174Z,17.40
2023-04-30T09:51:29.038Z,17.40
2023-04-30T09:54:32.284Z,17.40
2023-04-30T09:57:37.204Z,17.40
2023-04-30T10:00:40.629Z,17.40
2023-04-30T10:03:44.131Z,17.40
2023-04-30T10:06:47.463Z,17.40
2023-04-30T10:09:49.803Z,17.40
2023-04-30T10:13:01.524Z,17.40
2023-04-30T10:16:12.097Z,17.40
2023-04-30T10:19:36.595Z,17.40
2023-04-30T10:22:38.953Z,17.40
2023-04-30T10:25:41.727Z,17.40
2023-04-30T10:28:44.848Z,17.40
2023-04-30T10:31:49.375Z,17.40
2023-04-30T10:35:35.526Z,17.40
2023-04-30T10:38:38.808Z,17.40
2023-04-30T10:41:44.705Z,17.40
2023-04-30T10:44:48.827Z,17.40
2023-04-30T10:47:51.137Z,17.40
2023-04-30T10:50:57.058Z,17.40
2023-04-30T10:53:59.400Z,17.40
2023-04-30T10:57:20.680Z,17.50
2023-04-30T11:00:28.203Z,17.50
2023-04-30T11:03:31.675Z,17.50
2023-04-30T11:06:56.581Z,17.50
2023-04-30T11:09:58.954Z,17.50
2023-04-30T11:13:10.409Z,17.50
2023-04-30T11:16:12.846Z,17.50
2023-04-30T11:19:16.767Z,17.50
2023-04-30T11:22:24.709Z,17.50
2023-04-30T11:25:39.259Z,17.50
2023-04-30T11:28:52.714Z,17.50
2023-04-30T11:31:55.518Z,17.50
2023-04-30T11:34:58.258Z,17.50
2023-04-30T11:38:02.006Z,17.50
2023-04-30T11:41:05.358Z,17.50
2023-04-30T11:44:24.192Z,17.50
2023-04-30T11:47:27.326Z,17.50
2023-04-30T11:50:34.304Z,17.50
2023-04-30T11:53:36.517Z,17.50
2023-04-30T11:56:40.885Z,17.50
2023-04-30T11:59:44.085Z,17.50
2023-04-30T12:02:49.820Z,17.60
2023-04-30T12:05:52.325Z,17.60
2023-04-30T12:08:56.020Z,17.50
2023-04-30T12:11:58.511Z,17.50
2023-04-30T12:15:12.509Z,17.60
2023-04-30T12:18:15.776Z,17.60
2023-04-30T12:21:19.083Z,17.60
2023-04-30T12:24:21.575Z,17.60
2023-04-30T12:27:24.177Z,17.60
2023-04-30T12:30:27.427Z,17.60
2023-04-30T12:33:32.943Z,17.60
2023-04-30T12:36:37.156Z,17.60
2023-04-30T12:39:39.474Z,17.60
2023-04-30T12:42:44.951Z,17.60
2023-04-30T12:45:53.950Z,17.60
2023-04-30T12:48:56.500Z,17.70
2023-04-30T12:52:23.291Z,17.60
2023-04-30T12:55:25.542Z,17.70
2023-04-30T12:58:31.608Z,17.70
2023-04-30T13:01:44.385Z,17.70
2023-04-30T13:04:46.671Z,17.70
2023-04-30T13:07:52.838Z,17.70
2023-04-30T13:10:55.136Z,17.70
2023-04-30T13:13:57.501Z,17.70
2023-04-30T13:17:00.141Z,17.70
2023-04-30T13:20:02.460Z,17.70
2023-04-30T13:23:06.589Z,17.70
2023-04-30T13:26:09.163Z,17.80
2023-04-30T13:29:12.099Z,17.80
2023-04-30T13:32:14.378Z,17.70
2023-04-30T13:35:16.789Z,17.70
2023-04-30T13:38:19.208Z,17.80
2023-04-30T13:41:22.707Z,17.80
2023-04-30T13:44:24.935Z,17.80
2023-04-30T13:47:27.267Z,17.80
2023-04-30T13:50:29.472Z,17.80
2023-04-30T13:53:31.810Z,17.80
2023-04-30T13:56:34.246Z,17.80
2023-04-30T13:59:36.866Z,17.80
2023-04-30T14:02:39.094Z,17.80
2023-04-30T14:05:41.422Z,17.80
2023-04-30T14:08:43.613Z,17.90
2023-04-30T14:11:45.830Z,17.90
2023-04-30T14:14:48.035Z,17.90
2023-04-30T14:17:50.565Z,17.90
2023-04-30T14:20:52.766Z,17.90
2023-04-30T14:23:55.927Z,17.90
2023-04-30T14:27:00.150Z,17.90
2023-04-30T14:30:04.089Z,17.90
2023-04-30T14:33:06.604Z,17.90
2023-04-30T14:36:09.018Z,17.90
2023-04-30T14:39:11.411Z,17.90
2023-04-30T14:42:13.924Z,17.90
2023-04-30T14:45:16.955Z,17.90
2023-04-30T14:48:19.348Z,17.90
2023-04-30T14:51:21.632Z,17.90
2023-04-30T14:54:24.057Z,17.90
2023-04-30T14:57:27.576Z,17.90
2023-04-30T15:00:29.917Z,17.90
2023-04-30T15:03:32.333Z,17.90
2023-04-30T15:06:34.701Z,18.00
2023-04-30T15:09:36.883Z,18.00
2023-04-30T15:12:39.849Z,18.00
2023-04-30T15:15:42.983Z,17.90
2023-04-30T15:18:45.340Z,18.00
2023-04-30T15:21:49.089Z,18.00
2023-04-30T15:24:51.541Z,18.00
2023-04-30T15:27:54.899Z,18.00
2023-04-30T15:30:57.617Z,18.00
2023-04-30T15:33:59.849Z,18.00
2023-04-30T15:37:02.474Z,18.00
2023-04-30T15:40:05.881Z,18.00
2023-04-30T15:43:11.180Z,18.00
2023-04-30T15:46:14.001Z,18.00
2023-04-30T15:49:16.530Z,18.10
2023-04-30T15:52:18.955Z,18.10
2023-04-30T15:55:21.320Z,18.10
2023-04-30T15:58:24.156Z,18.00
2023-04-30T16:01:26.752Z,18.00
2023-04-30T16:04:29.563Z,18.00
2023-04-30T16:07:32.228Z,18.00
2023-04-30T16:10:34.541Z,18.00
2023-04-30T16:13:36.885Z,18.00
2023-04-30T16:16:39.138Z,18.00
2023-04-30T16:19:41.326Z,18.10
2023-04-30T16:22:43.529Z,18.00
2023-04-30T16:25:45.853Z,18.00
2023-04-30T16:28:48.064Z,18.10
2023-04-30T16:31:50.406Z,18.10
2023-04-30T16:34:52.655Z,18.00
2023-04-30T16:37:55.356Z,18.10
2023-04-30T16:40:57.681Z,18.10
2023-04-30T16:44:00.315Z,18.10
2023-04-30T16:47:02.968Z,18.00
2023-04-30T16:50:05.691Z,18.10
2023-04-30T16:53:10.413Z,18.10
2023-04-30T16:56:13.302Z,18.10
2023-04-30T16:59:15.726Z,18.10
2023-04-30T17:02:18.290Z,18.10
2023-04-30T17:05:21.513Z,18.10
2023-04-30T17:08:23.759Z,18.10
2023-04-30T17:11:26.122Z,18.10
2023-04-30T17:14:28.835Z,18.10
2023-04-30T17:17:31.753Z,18.10
2023-04-30T17:20:34.536Z,18.10
2023-04-30T17:23:36.827Z,18.10
2023-04-30T17:26:39.067Z,18.10
2023-04-30T17:29:41.971Z,18.10
2023-04-30T17:32:44.593Z,18.10
2023-04-30T17:35:46.812Z,18.10
2023-04-30T17:38:49.061Z,18.10
2023-04-30T17:41:51.347Z,18.10
2023-04-30T17:44:53.587Z,18.20
2023-04-30T17:47:56.069Z,18.10
2023-04-30T17:50:58.439Z,18.10
2023-04-30T17:54:00.838Z,18.10
2023-04-30T17:57:03.102Z,18.10
2023-04-30T18:00:07.274Z,18.10
2023-04-30T18:03:18.311Z,18.10
2023-04-30T18:06:20.718Z,18.20
2023-04-30T18:09:23.044Z,18.20
2023-04-30T18:12:25.840Z,18.20
2023-04-30T18:15:28.611Z,18.10
2023-04-30T18:18:31.286Z,18.20
2023-04-30T18:21:33.881Z,18.20
2023-04-30T18:24:36.197Z,18.10
2023-04-30T18:27:38.896Z,18.10
2023-04-30T18:30:41.274Z,18.10
2023-04-30T18:33:43.628Z,18.20
2023-04-30T18:36:46.283Z,18.10
2023-04-30T18:39:48.738Z,18.20
2023-04-30T18:42:51.332Z,18.10
2023-04-30T18:45:53.674Z,18.10
2023-04-30T18:48:56.859Z,18.10
2023-04-30T18:52:00.865Z,18.10
2023-04-30T18:55:03.301Z,18.10
2023-04-30T18:58:05.649Z,18.20
2023-04-30T19:01:08.733Z,18.20
2023-04-30T19:04:13.999Z,18.10
2023-04-30T19:07:16.861Z,18.20
2023-04-30T19:10:19.228Z,18.10
2023-04-30T19:13:21.747Z,18.10
2023-04-30T19:16:23.977Z,18.10
2023-04-30T19:19:26.911Z,18.10
2023-04-30T19:22:29.144Z,18.20
2023-04-30T19:25:31.391Z,18.20
2023-04-30T19:28:33.566Z,18.20
2023-04-30T19:31:36.454Z,18.20
2023-04-30T19:34:38.931Z,18.10
2023-04-30T19:37:41.333Z,18.20
2023-04-30T19:40:52.216Z,18.20
2023-04-30T19:43:54.583Z,18.10
2023-04-30T19:46:56.928Z,18.20
2023-04-30T19:49:59.216Z,18.20
2023-04-30T19:53:01.438Z,18.10
2023-04-30T19:56:03.897Z,18.10
2023-04-30T19:59:06.244Z,18.20
2023-04-30T20:02:08.476Z,18.20
2023-04-30T20:05:12.011Z,18.20
2023-04-30T20:08:14.448Z,18.20
2023-04-30T20:11:16.829Z,18.20
2023-04-30T20:14:19.542Z,18.20
2023-04-30T20:17:21.797Z,18.20
2023-04-30T20:20:24.154Z,18.10
2023-04-30T20:23:26.413Z,18.20
2023-04-30T20:26:28.760Z,18.10
2023-04-30T20:29:30.987Z,18.20
2023-04-30T20:32:34.827Z,18.20
2023-04-30T20:35:39.778Z,18.20
2023-04-30T20:38:42.087Z,18.10
2023-04-30T20:41:48.082Z,18.20
2023-04-30T20:44:50.642Z,18.20
2023-04-30T20:47:53.019Z,18.20
2023-04-30T20:50:55.780Z,18.10
2023-04-30T20:53:58.022Z,18.10
2023-04-30T20:57:00.380Z,18.10
2023-04-30T21:00:05.079Z,18.20
2023-04-30T21:03:09.755Z,18.10
2023-04-30T21:06:12.226Z,18.10
2023-04-30T21:09:14.781Z,18.20
2023-04-30T21:12:17.159Z,18.10
2023-04-30T21:15:19.563Z,18.10
2023-04-30T21:18:21.924Z,18.10
2023-04-30T21:21:24.231Z,18.10
2023-04-30T21:24:30.201Z,18.20
2023-04-30T21:27:33.091Z,18.10
2023-04-30T21:30:37.306Z,18.10
2023-04-30T21:33:39.721Z,18.10
2023-04-30T21:36:41.953Z,18.10
2023-04-30T21:39:44.245Z,18.10
2023-04-30T21:42:46.490Z,18.10
2023-04-30T21:45:49.218Z,18.10
2023-04-30T21:48:51.507Z,18.10
2023-04-30T21:51:53.770Z,18.10
2023-04-30T21:54:56.022Z,18.10
2023-04-30T21:57:58.279Z,18.10
2023-04-30T22:01:01.024Z,18.10
2023-04-30T22:04:04.846Z,18.10
2023-04-30T22:07:07.224Z,18.10
2023-04-30T22:10:10.648Z,18.10
2023-04-30T22:13:12.959Z,18.10
2023-04-30T22:16:15.318Z,18.00
2023-04-30T22:19:17.512Z,18.10
2023-04-30T22:22:19.861Z,18.00
2023-04-30T22:25:22.270Z,18.10
2023-04-30T22:28:24.605Z,18.10
2023-04-30T22:31:27.097Z,18.10
2023-04-30T22:34:29.617Z,18.10
2023-04-30T22:37:31.943Z,18.10
2023-04-30T22:40:38.101Z,18.10
2023-04-30T22:43:40.775Z,18.10
2023-04-30T22:46:46.811Z,18.00
2023-04-30T22:49:49.619Z,18.00
2023-04-30T22:52:53.388Z,18.00
2023-04-30T22:55:55.724Z,18.00
2023-04-30T22:58:58.112Z,18.00
2023-04-30T23:02:00.877Z,18.00
2023-04-30T23:05:03.989Z,18.00
2023-04-30T23:08:06.476Z,18.00
2023-04-30T23:11:08.857Z,18.00
2023-04-30T23:14:11.085Z,18.00
2023-04-30T23:17:13.335Z,18.00
2023-04-30T23:20:16.101Z,18.00
2023-04-30T23:23:18.513Z,18.00
2023-04-30T23:26:21.013Z,18.00
2023-04-30T23:29:23.563Z,18.00
2023-04-30T23:32:26.398Z,18.00
2023-04-30T23:35:28.912Z,18.00
2023-04-30T23:38:31.365Z,18.00
2023-04-30T23:41:33.666Z,18.00
2023-04-30T23:44:36.072Z,18.00
2023-04-30T23:47:38.637Z,18.00
2023-04-30T23:50:40.946Z,17.90
2023-04-30T23:53:43.422Z,18.00
2023-04-30T23:56:46.624Z,17.90
2023-04-30T23:59:49.010Z,18.00
